sensor_id;sensor_type;location;lat;lon;timestamp;P1;durP1;ratioP1;P2;durP2;ratioP2
17494;SDS011;8864;51.970;4.614;2022-08-18T00:10:42;7.72;;;3.65;;
17494;SDS011;8864;51.970;4.614;2022-08-18T00:13:26;10.00;;;3.88;;
17494;SDS011;8864;51.970;4.614;2022-08-18T00:15:53;6.20;;;3.13;;
17494;SDS011;8864;51.970;4.614;2022-08-18T00:18:20;7.53;;;3.85;;
17494;SDS011;8864;51.970;4.614;2022-08-18T00:20:47;10.43;;;3.97;;
17494;SDS011;8864;51.970;4.614;2022-08-18T00:23:13;9.85;;;4.13;;
17494;SDS011;8864;51.970;4.614;2022-08-18T00:25:42;8.05;;;4.40;;
17494;SDS011;8864;51.970;4.614;2022-08-18T00:28:09;8.85;;;3.75;;
17494;SDS011;8864;51.970;4.614;2022-08-18T00:30:37;6.53;;;3.67;;
17494;SDS011;8864;51.970;4.614;2022-08-18T00:33:04;8.65;;;3.85;;
17494;SDS011;8864;51.970;4.614;2022-08-18T00:35:32;8.10;;;4.18;;
17494;SDS011;8864;51.970;4.614;2022-08-18T00:38:01;8.80;;;4.60;;
17494;SDS011;8864;51.970;4.614;2022-08-18T00:40:30;8.50;;;4.35;;
17494;SDS011;8864;51.970;4.614;2022-08-18T00:43:04;8.15;;;4.00;;
17494;SDS011;8864;51.970;4.614;2022-08-18T00:45:36;7.75;;;4.20;;
17494;SDS011;8864;51.970;4.614;2022-08-18T00:48:05;9.50;;;4.63;;
17494;SDS011;8864;51.970;4.614;2022-08-18T00:50:34;7.70;;;4.53;;
17494;SDS011;8864;51.970;4.614;2022-08-18T00:53:06;7.38;;;4.25;;
17494;SDS011;8864;51.970;4.614;2022-08-18T00:55:38;10.38;;;4.63;;
17494;SDS011;8864;51.970;4.614;2022-08-18T00:58:10;11.57;;;4.65;;
17494;SDS011;8864;51.970;4.614;2022-08-18T01:00:43;10.25;;;4.30;;
17494;SDS011;8864;51.970;4.614;2022-08-18T01:03:15;5.97;;;4.20;;
17494;SDS011;8864;51.970;4.614;2022-08-18T01:05:44;11.27;;;4.35;;
17494;SDS011;8864;51.970;4.614;2022-08-18T01:08:16;10.68;;;4.63;;
17494;SDS011;8864;51.970;4.614;2022-08-18T01:10:43;9.63;;;4.22;;
17494;SDS011;8864;51.970;4.614;2022-08-18T01:13:12;13.05;;;4.60;;
17494;SDS011;8864;51.970;4.614;2022-08-18T01:15:39;10.57;;;4.63;;
17494;SDS011;8864;51.970;4.614;2022-08-18T01:18:06;8.10;;;4.55;;
17494;SDS011;8864;51.970;4.614;2022-08-18T01:20:56;9.98;;;4.50;;
17494;SDS011;8864;51.970;4.614;2022-08-18T01:23:50;8.98;;;4.88;;
17494;SDS011;8864;51.970;4.614;2022-08-18T01:26:18;11.07;;;5.05;;
17494;SDS011;8864;51.970;4.614;2022-08-18T01:28:46;12.73;;;5.00;;
17494;SDS011;8864;51.970;4.614;2022-08-18T01:31:28;10.27;;;4.60;;
17494;SDS011;8864;51.970;4.614;2022-08-18T01:34:02;9.93;;;4.65;;
17494;SDS011;8864;51.970;4.614;2022-08-18T01:36:30;12.50;;;5.43;;
17494;SDS011;8864;51.970;4.614;2022-08-18T01:39:03;9.73;;;4.63;;
17494;SDS011;8864;51.970;4.614;2022-08-18T01:41:33;11.90;;;5.47;;
17494;SDS011;8864;51.970;4.614;2022-08-18T01:44:00;12.98;;;5.55;;
17494;SDS011;8864;51.970;4.614;2022-08-18T01:46:30;12.40;;;6.13;;
17494;SDS011;8864;51.970;4.614;2022-08-18T01:48:59;14.35;;;5.50;;
17494;SDS011;8864;51.970;4.614;2022-08-18T01:51:27;12.90;;;5.15;;
17494;SDS011;8864;51.970;4.614;2022-08-18T01:53:56;11.50;;;5.20;;
17494;SDS011;8864;51.970;4.614;2022-08-18T01:56:25;10.18;;;5.05;;
17494;SDS011;8864;51.970;4.614;2022-08-18T01:58:52;12.85;;;4.88;;
17494;SDS011;8864;51.970;4.614;2022-08-18T02:01:20;8.50;;;5.22;;
17494;SDS011;8864;51.970;4.614;2022-08-18T02:03:48;11.57;;;5.00;;
17494;SDS011;8864;51.970;4.614;2022-08-18T02:06:18;11.25;;;4.72;;
17494;SDS011;8864;51.970;4.614;2022-08-18T02:08:45;9.43;;;5.43;;
17494;SDS011;8864;51.970;4.614;2022-08-18T02:11:13;12.30;;;5.80;;
17494;SDS011;8864;51.970;4.614;2022-08-18T02:13:41;11.15;;;5.22;;
17494;SDS011;8864;51.970;4.614;2022-08-18T02:16:08;11.70;;;5.45;;
17494;SDS011;8864;51.970;4.614;2022-08-18T02:18:35;12.85;;;5.78;;
17494;SDS011;8864;51.970;4.614;2022-08-18T02:21:05;12.13;;;5.97;;
17494;SDS011;8864;51.970;4.614;2022-08-18T02:23:35;9.20;;;5.00;;
17494;SDS011;8864;51.970;4.614;2022-08-18T02:26:03;11.63;;;5.45;;
17494;SDS011;8864;51.970;4.614;2022-08-18T02:28:31;11.43;;;5.40;;
17494;SDS011;8864;51.970;4.614;2022-08-18T02:31:04;11.85;;;5.38;;
17494;SDS011;8864;51.970;4.614;2022-08-18T02:33:31;8.30;;;5.25;;
17494;SDS011;8864;51.970;4.614;2022-08-18T02:35:58;10.50;;;5.40;;
17494;SDS011;8864;51.970;4.614;2022-08-18T02:38:26;12.35;;;5.43;;
17494;SDS011;8864;51.970;4.614;2022-08-18T02:40:54;13.68;;;5.68;;
17494;SDS011;8864;51.970;4.614;2022-08-18T02:43:21;11.15;;;4.90;;
17494;SDS011;8864;51.970;4.614;2022-08-18T02:45:49;11.48;;;5.57;;
17494;SDS011;8864;51.970;4.614;2022-08-18T02:48:17;11.80;;;5.93;;
17494;SDS011;8864;51.970;4.614;2022-08-18T02:50:46;11.07;;;5.03;;
17494;SDS011;8864;51.970;4.614;2022-08-18T02:53:13;9.50;;;5.35;;
17494;SDS011;8864;51.970;4.614;2022-08-18T02:55:46;10.27;;;5.43;;
17494;SDS011;8864;51.970;4.614;2022-08-18T02:58:12;11.23;;;5.50;;
17494;SDS011;8864;51.970;4.614;2022-08-18T03:00:39;11.00;;;5.32;;
17494;SDS011;8864;51.970;4.614;2022-08-18T03:03:06;13.07;;;5.40;;
17494;SDS011;8864;51.970;4.614;2022-08-18T03:05:38;8.65;;;5.32;;
17494;SDS011;8864;51.970;4.614;2022-08-18T03:08:05;11.30;;;5.18;;
17494;SDS011;8864;51.970;4.614;2022-08-18T03:10:35;11.65;;;5.63;;
17494;SDS011;8864;51.970;4.614;2022-08-18T03:13:03;8.82;;;5.03;;
17494;SDS011;8864;51.970;4.614;2022-08-18T03:15:30;7.10;;;4.80;;
17494;SDS011;8864;51.970;4.614;2022-08-18T03:17:57;9.13;;;4.97;;
17494;SDS011;8864;51.970;4.614;2022-08-18T03:20:27;10.20;;;5.13;;
17494;SDS011;8864;51.970;4.614;2022-08-18T03:22:55;13.55;;;5.78;;
17494;SDS011;8864;51.970;4.614;2022-08-18T03:25:22;9.98;;;5.32;;
17494;SDS011;8864;51.970;4.614;2022-08-18T03:27:49;10.13;;;5.18;;
17494;SDS011;8864;51.970;4.614;2022-08-18T03:30:15;7.45;;;4.68;;
17494;SDS011;8864;51.970;4.614;2022-08-18T03:32:43;13.38;;;5.30;;
17494;SDS011;8864;51.970;4.614;2022-08-18T03:35:11;9.75;;;4.90;;
17494;SDS011;8864;51.970;4.614;2022-08-18T03:37:38;9.45;;;5.20;;
17494;SDS011;8864;51.970;4.614;2022-08-18T03:40:07;12.25;;;4.75;;
17494;SDS011;8864;51.970;4.614;2022-08-18T03:42:35;7.00;;;4.13;;
17494;SDS011;8864;51.970;4.614;2022-08-18T03:45:03;9.90;;;4.85;;
17494;SDS011;8864;51.970;4.614;2022-08-18T03:47:31;11.38;;;4.45;;
17494;SDS011;8864;51.970;4.614;2022-08-18T03:49:58;5.82;;;4.03;;
17494;SDS011;8864;51.970;4.614;2022-08-18T03:52:25;6.70;;;4.03;;
17494;SDS011;8864;51.970;4.614;2022-08-18T03:54:52;10.57;;;4.45;;
17494;SDS011;8864;51.970;4.614;2022-08-18T03:57:20;7.95;;;4.57;;
17494;SDS011;8864;51.970;4.614;2022-08-18T03:59:46;10.07;;;4.63;;
17494;SDS011;8864;51.970;4.614;2022-08-18T04:02:13;12.90;;;4.40;;
17494;SDS011;8864;51.970;4.614;2022-08-18T04:04:40;8.63;;;4.40;;
17494;SDS011;8864;51.970;4.614;2022-08-18T04:07:08;9.50;;;4.90;;
17494;SDS011;8864;51.970;4.614;2022-08-18T04:09:36;9.55;;;4.43;;
17494;SDS011;8864;51.970;4.614;2022-08-18T04:12:04;9.23;;;4.38;;
17494;SDS011;8864;51.970;4.614;2022-08-18T04:14:37;8.80;;;3.88;;
17494;SDS011;8864;51.970;4.614;2022-08-18T04:17:06;6.50;;;3.60;;
17494;SDS011;8864;51.970;4.614;2022-08-18T04:19:33;10.68;;;4.40;;
17494;SDS011;8864;51.970;4.614;2022-08-18T04:22:02;9.13;;;3.67;;
17494;SDS011;8864;51.970;4.614;2022-08-18T04:24:30;8.02;;;3.45;;
17494;SDS011;8864;51.970;4.614;2022-08-18T04:26:58;8.43;;;3.60;;
17494;SDS011;8864;51.970;4.614;2022-08-18T04:29:28;6.82;;;3.20;;
17494;SDS011;8864;51.970;4.614;2022-08-18T04:31:59;11.85;;;4.43;;
17494;SDS011;8864;51.970;4.614;2022-08-18T04:57:29;9.48;;;3.58;;
17494;SDS011;8864;51.970;4.614;2022-08-18T05:00:07;11.57;;;3.35;;
17494;SDS011;8864;51.970;4.614;2022-08-18T05:02:37;6.30;;;3.58;;
17494;SDS011;8864;51.970;4.614;2022-08-18T05:05:07;7.13;;;3.60;;
17494;SDS011;8864;51.970;4.614;2022-08-18T05:07:35;7.35;;;3.63;;
17494;SDS011;8864;51.970;4.614;2022-08-18T05:10:04;8.63;;;3.88;;
17494;SDS011;8864;51.970;4.614;2022-08-18T05:12:33;8.38;;;3.60;;
17494;SDS011;8864;51.970;4.614;2022-08-18T05:15:00;10.68;;;3.63;;
17494;SDS011;8864;51.970;4.614;2022-08-18T05:17:27;6.90;;;3.17;;
17494;SDS011;8864;51.970;4.614;2022-08-18T05:19:54;7.55;;;3.20;;
17494;SDS011;8864;51.970;4.614;2022-08-18T05:22:21;6.85;;;2.88;;
17494;SDS011;8864;51.970;4.614;2022-08-18T05:24:48;8.35;;;3.42;;
17494;SDS011;8864;51.970;4.614;2022-08-18T05:27:16;9.25;;;3.63;;
17494;SDS011;8864;51.970;4.614;2022-08-18T05:29:45;7.82;;;3.42;;
17494;SDS011;8864;51.970;4.614;2022-08-18T05:32:13;7.78;;;3.67;;
17494;SDS011;8864;51.970;4.614;2022-08-18T05:34:40;6.80;;;3.60;;
17494;SDS011;8864;51.970;4.614;2022-08-18T05:37:09;5.30;;;3.35;;
17494;SDS011;8864;51.970;4.614;2022-08-18T05:39:47;6.25;;;3.83;;
17494;SDS011;8864;51.970;4.614;2022-08-18T05:42:20;8.75;;;3.40;;
17494;SDS011;8864;51.970;4.614;2022-08-18T05:44:51;7.10;;;3.28;;
17494;SDS011;8864;51.970;4.614;2022-08-18T05:47:22;7.15;;;3.67;;
17494;SDS011;8864;51.970;4.614;2022-08-18T05:49:51;6.95;;;3.67;;
17494;SDS011;8864;51.970;4.614;2022-08-18T05:52:20;8.30;;;3.88;;
17494;SDS011;8864;51.970;4.614;2022-08-18T05:54:54;5.63;;;3.60;;
17494;SDS011;8864;51.970;4.614;2022-08-18T05:57:44;8.48;;;3.55;;
17494;SDS011;8864;51.970;4.614;2022-08-18T06:00:17;6.80;;;3.60;;
17494;SDS011;8864;51.970;4.614;2022-08-18T06:02:46;9.82;;;3.80;;
17494;SDS011;8864;51.970;4.614;2022-08-18T06:05:20;6.20;;;3.50;;
17494;SDS011;8864;51.970;4.614;2022-08-18T06:07:51;7.90;;;3.50;;
17494;SDS011;8864;51.970;4.614;2022-08-18T06:10:21;5.65;;;3.55;;
17494;SDS011;8864;51.970;4.614;2022-08-18T06:12:50;8.43;;;3.50;;
17494;SDS011;8864;51.970;4.614;2022-08-18T06:15:24;6.03;;;3.67;;
17494;SDS011;8864;51.970;4.614;2022-08-18T06:20:53;7.95;;;4.07;;
17494;SDS011;8864;51.970;4.614;2022-08-18T06:23:29;5.43;;;3.63;;
17494;SDS011;8864;51.970;4.614;2022-08-18T06:26:02;6.90;;;3.28;;
17494;SDS011;8864;51.970;4.614;2022-08-18T06:28:40;7.93;;;3.75;;
17494;SDS011;8864;51.970;4.614;2022-08-18T12:21:31;4.15;;;1.90;;
17494;SDS011;8864;51.970;4.614;2022-08-18T12:23:58;3.88;;;2.10;;
17494;SDS011;8864;51.970;4.614;2022-08-18T12:26:25;9.07;;;2.15;;
17494;SDS011;8864;51.970;4.614;2022-08-18T12:28:52;4.63;;;2.17;;
17494;SDS011;8864;51.970;4.614;2022-08-18T12:31:19;5.13;;;1.90;;
17494;SDS011;8864;51.970;4.614;2022-08-18T12:33:46;6.57;;;1.90;;
17494;SDS011;8864;51.970;4.614;2022-08-18T12:36:12;2.28;;;1.60;;
17494;SDS011;8864;51.970;4.614;2022-08-18T12:38:41;4.45;;;1.77;;
17494;SDS011;8864;51.970;4.614;2022-08-18T12:41:09;2.97;;;1.67;;
17494;SDS011;8864;51.970;4.614;2022-08-18T12:43:39;5.30;;;1.90;;
17494;SDS011;8864;51.970;4.614;2022-08-18T12:46:06;2.58;;;1.77;;
17494;SDS011;8864;51.970;4.614;2022-08-18T12:48:33;3.67;;;1.60;;
17494;SDS011;8864;51.970;4.614;2022-08-18T12:51:01;2.58;;;1.65;;
17494;SDS011;8864;51.970;4.614;2022-08-18T12:53:28;3.65;;;1.60;;
17494;SDS011;8864;51.970;4.614;2022-08-18T12:55:57;4.63;;;1.80;;
17494;SDS011;8864;51.970;4.614;2022-08-18T12:58:24;4.13;;;1.70;;
17494;SDS011;8864;51.970;4.614;2022-08-18T14:10:26;8.30;;;2.70;;
17494;SDS011;8864;51.970;4.614;2022-08-18T14:12:53;8.40;;;2.70;;
17494;SDS011;8864;51.970;4.614;2022-08-18T14:15:22;7.15;;;2.55;;
17494;SDS011;8864;51.970;4.614;2022-08-18T14:17:49;11.20;;;2.58;;
17494;SDS011;8864;51.970;4.614;2022-08-18T14:20:16;12.68;;;3.05;;
17494;SDS011;8864;51.970;4.614;2022-08-18T14:23:02;11.18;;;3.03;;
17494;SDS011;8864;51.970;4.614;2022-08-18T14:25:48;7.32;;;2.40;;
17494;SDS011;8864;51.970;4.614;2022-08-18T14:28:33;7.95;;;2.67;;
17494;SDS011;8864;51.970;4.614;2022-08-18T14:31:00;8.05;;;2.70;;
17494;SDS011;8864;51.970;4.614;2022-08-18T14:33:29;5.47;;;2.35;;
17494;SDS011;8864;51.970;4.614;2022-08-18T14:35:57;6.05;;;2.60;;
17494;SDS011;8864;51.970;4.614;2022-08-18T14:38:25;4.68;;;2.20;;
17494;SDS011;8864;51.970;4.614;2022-08-18T14:40:52;6.55;;;2.85;;
17494;SDS011;8864;51.970;4.614;2022-08-18T14:43:19;6.70;;;2.50;;
17494;SDS011;8864;51.970;4.614;2022-08-18T14:45:46;5.43;;;2.17;;
17494;SDS011;8864;51.970;4.614;2022-08-18T14:48:14;5.90;;;2.47;;
17494;SDS011;8864;51.970;4.614;2022-08-18T14:50:44;5.95;;;2.25;;
17494;SDS011;8864;51.970;4.614;2022-08-18T14:53:12;3.50;;;2.28;;
17494;SDS011;8864;51.970;4.614;2022-08-18T14:55:40;5.88;;;2.20;;
17494;SDS011;8864;51.970;4.614;2022-08-18T15:03:15;5.30;;;2.17;;
17494;SDS011;8864;51.970;4.614;2022-08-18T15:05:42;6.95;;;2.10;;
17494;SDS011;8864;51.970;4.614;2022-08-18T15:11:01;9.13;;;2.63;;
17494;SDS011;8864;51.970;4.614;2022-08-18T15:29:44;4.28;;;1.98;;
17494;SDS011;8864;51.970;4.614;2022-08-18T15:36:12;4.95;;;1.83;;
17494;SDS011;8864;51.970;4.614;2022-08-18T15:42:16;3.80;;;1.75;;
17494;SDS011;8864;51.970;4.614;2022-08-18T15:44:53;4.18;;;1.88;;
17494;SDS011;8864;51.970;4.614;2022-08-18T15:47:40;6.72;;;2.22;;
17494;SDS011;8864;51.970;4.614;2022-08-18T15:50:17;4.85;;;1.95;;
17494;SDS011;8864;51.970;4.614;2022-08-18T15:52:48;3.15;;;1.73;;
17494;SDS011;8864;51.970;4.614;2022-08-18T15:55:22;4.32;;;1.85;;
17494;SDS011;8864;51.970;4.614;2022-08-18T16:18:06;4.07;;;1.60;;
17494;SDS011;8864;51.970;4.614;2022-08-18T16:20:35;3.95;;;1.83;;
17494;SDS011;8864;51.970;4.614;2022-08-18T16:23:03;3.13;;;1.70;;
17494;SDS011;8864;51.970;4.614;2022-08-18T17:03:48;2.50;;;1.30;;
17494;SDS011;8864;51.970;4.614;2022-08-18T17:06:36;2.88;;;1.73;;
17494;SDS011;8864;51.970;4.614;2022-08-18T17:14:17;2.25;;;1.48;;
17494;SDS011;8864;51.970;4.614;2022-08-18T17:55:40;5.38;;;1.83;;
17494;SDS011;8864;51.970;4.614;2022-08-18T18:05:13;5.15;;;2.10;;
17494;SDS011;8864;51.970;4.614;2022-08-18T18:25:55;12.05;;;2.58;;
17494;SDS011;8864;51.970;4.614;2022-08-18T18:36:04;4.40;;;2.10;;
17494;SDS011;8864;51.970;4.614;2022-08-18T18:51:26;6.70;;;2.20;;
17494;SDS011;8864;51.970;4.614;2022-08-18T18:55:14;7.30;;;2.20;;
17494;SDS011;8864;51.970;4.614;2022-08-18T18:58:53;3.78;;;2.13;;
17494;SDS011;8864;51.970;4.614;2022-08-18T19:02:25;8.93;;;2.50;;
17494;SDS011;8864;51.970;4.614;2022-08-18T19:35:59;4.28;;;2.47;;
17494;SDS011;8864;51.970;4.614;2022-08-18T19:39:15;4.95;;;2.20;;
17494;SDS011;8864;51.970;4.614;2022-08-18T19:42:36;5.13;;;2.10;;
17494;SDS011;8864;51.970;4.614;2022-08-18T19:49:00;4.10;;;2.03;;
17494;SDS011;8864;51.970;4.614;2022-08-18T19:55:29;4.57;;;2.30;;
17494;SDS011;8864;51.970;4.614;2022-08-18T19:58:47;5.20;;;2.10;;
17494;SDS011;8864;51.970;4.614;2022-08-18T20:45:26;5.07;;;2.35;;
